sensor_id;sensor_type;location;lat;lon;timestamp;pressure;altitude;pressure_sealevel;temperature;humidity
13209;BME280;6669;42.678;23.332;2023-04-25T00:02:26;93783.38;;;10.45;100.00
13209;BME280;6669;42.678;23.332;2023-04-25T00:04:56;93781.78;;;10.51;100.00
13209;BME280;6669;42.678;23.332;2023-04-25T00:07:25;93771.44;;;10.58;100.00
13209;BME280;6669;42.678;23.332;2023-04-25T00:09:53;93763.13;;;10.76;100.00
13209;BME280;6669;42.678;23.332;2023-04-25T00:12:21;93748.75;;;10.87;100.00
13209;BME280;6669;42.678;23.332;2023-04-25T00:14:49;93745.28;;;10.73;100.00
13209;BME280;6669;42.678;23.332;2023-04-25T00:17:17;93738.53;;;10.78;100.00
13209;BME280;6669;42.678;23.332;2023-04-25T00:19:45;93716.31;;;10.69;100.00
13209;BME280;6669;42.678;23.332;2023-04-25T00:22:15;93724.13;;;10.69;100.00
13209;BME280;6669;42.678;23.332;2023-04-25T00:24:44;93730.88;;;10.63;100.00
13209;BME280;6669;42.678;23.332;2023-04-25T00:27:11;93732.88;;;10.61;100.00
13209;BME280;6669;42.678;23.332;2023-04-25T00:29:39;93721.28;;;10.64;100.00
13209;BME280;6669;42.678;23.332;2023-04-25T00:32:07;93719.28;;;10.66;100.00
13209;BME280;6669;42.678;23.332;2023-04-25T00:34:35;93726.28;;;10.66;100.00
13209;BME280;6669;42.678;23.332;2023-04-25T00:37:03;93722.50;;;10.61;100.00
13209;BME280;6669;42.678;23.332;2023-04-25T00:39:33;93719.06;;;10.61;100.00
13209;BME280;6669;42.678;23.332;2023-04-25T00:42:02;93717.84;;;10.57;100.00
13209;BME280;6669;42.678;23.332;2023-04-25T00:44:31;93718.47;;;10.59;100.00
13209;BME280;6669;42.678;23.332;2023-04-25T00:47:00;93713.84;;;10.54;100.00
13209;BME280;6669;42.678;23.332;2023-04-25T00:49:29;93716.03;;;10.51;100.00
13209;BME280;6669;42.678;23.332;2023-04-25T00:51:57;93721.25;;;10.57;100.00
13209;BME280;6669;42.678;23.332;2023-04-25T00:54:25;93691.03;;;10.43;100.00
13209;BME280;6669;42.678;23.332;2023-04-25T00:56:55;93711.81;;;10.50;100.00
13209;BME280;6669;42.678;23.332;2023-04-25T00:59:23;93723.41;;;10.47;100.00
13209;BME280;6669;42.678;23.332;2023-04-25T01:01:51;93728.59;;;10.40;100.00
13209;BME280;6669;42.678;23.332;2023-04-25T01:04:19;93726.28;;;10.30;100.00
13209;BME280;6669;42.678;23.332;2023-04-25T01:06:48;93719.69;;;10.28;100.00
13209;BME280;6669;42.678;23.332;2023-04-25T01:09:17;93718.81;;;10.42;100.00
13209;BME280;6669;42.678;23.332;2023-04-25T01:11:46;93697.66;;;10.52;100.00
13209;BME280;6669;42.678;23.332;2023-04-25T01:14:16;93695.47;;;10.56;100.00
13209;BME280;6669;42.678;23.332;2023-04-25T01:16:44;93693.69;;;10.56;100.00
13209;BME280;6669;42.678;23.332;2023-04-25T01:19:16;93692.06;;;10.55;100.00
13209;BME280;6669;42.678;23.332;2023-04-25T01:21:46;93685.66;;;10.51;100.00
13209;BME280;6669;42.678;23.332;2023-04-25T01:24:14;93688.84;;;10.53;100.00
13209;BME280;6669;42.678;23.332;2023-04-25T01:26:42;93684.84;;;10.51;100.00
13209;BME280;6669;42.678;23.332;2023-04-25T01:29:16;93673.25;;;10.40;100.00
13209;BME280;6669;42.678;23.332;2023-04-25T01:31:45;93679.41;;;10.39;100.00
13209;BME280;6669;42.678;23.332;2023-04-25T01:34:13;93666.72;;;10.22;100.00
13209;BME280;6669;42.678;23.332;2023-04-25T01:36:41;93681.91;;;10.25;100.00
13209;BME280;6669;42.678;23.332;2023-04-25T01:39:11;93684.72;;;10.24;100.00
13209;BME280;6669;42.678;23.332;2023-04-25T01:41:39;93681.69;;;10.20;100.00
13209;BME280;6669;42.678;23.332;2023-04-25T01:44:07;93683.06;;;10.09;100.00
13209;BME280;6669;42.678;23.332;2023-04-25T01:46:35;93694.44;;;10.08;100.00
13209;BME280;6669;42.678;23.332;2023-04-25T01:49:03;93686.44;;;10.10;100.00
13209;BME280;6669;42.678;23.332;2023-04-25T01:51:31;93696.81;;;10.03;100.00
13209;BME280;6669;42.678;23.332;2023-04-25T01:54:00;93693.97;;;9.98;100.00
13209;BME280;6669;42.678;23.332;2023-04-25T01:56:31;93664.41;;;9.64;100.00
13209;BME280;6669;42.678;23.332;2023-04-25T01:58:59;93707.94;;;9.97;100.00
13209;BME280;6669;42.678;23.332;2023-04-25T02:01:27;93693.13;;;9.91;100.00
13209;BME280;6669;42.678;23.332;2023-04-25T02:03:56;93698.31;;;9.91;100.00
13209;BME280;6669;42.678;23.332;2023-04-25T02:06:25;93691.31;;;9.91;100.00
13209;BME280;6669;42.678;23.332;2023-04-25T02:08:52;93695.38;;;10.01;100.00
13209;BME280;6669;42.678;23.332;2023-04-25T02:11:20;93684.84;;;10.09;100.00
13209;BME280;6669;42.678;23.332;2023-04-25T02:13:50;93682.84;;;10.04;100.00
13209;BME280;6669;42.678;23.332;2023-04-25T02:16:19;93678.84;;;10.08;100.00
13209;BME280;6669;42.678;23.332;2023-04-25T02:18:47;93676.03;;;10.03;100.00
13209;BME280;6669;42.678;23.332;2023-04-25T02:21:15;93671.41;;;9.98;100.00
13209;BME280;6669;42.678;23.332;2023-04-25T02:23:43;93666.78;;;9.94;100.00
13209;BME280;6669;42.678;23.332;2023-04-25T02:26:14;93661.78;;;9.92;100.00
13209;BME280;6669;42.678;23.332;2023-04-25T02:28:42;93668.19;;;9.96;100.00
13209;BME280;6669;42.678;23.332;2023-04-25T02:31:11;93638.94;;;9.81;100.00
13209;BME280;6669;42.678;23.332;2023-04-25T02:33:39;93653.84;;;10.01;100.00
13209;BME280;6669;42.678;23.332;2023-04-25T02:36:07;93632.22;;;9.87;100.00
13209;BME280;6669;42.678;23.332;2023-04-25T02:38:35;93639.63;;;9.96;100.00
13209;BME280;6669;42.678;23.332;2023-04-25T02:41:03;93651.59;;;9.91;100.00
13209;BME280;6669;42.678;23.332;2023-04-25T02:43:31;93653.13;;;9.78;100.00
13209;BME280;6669;42.678;23.332;2023-04-25T02:45:59;93648.28;;;9.69;100.00
13209;BME280;6669;42.678;23.332;2023-04-25T02:48:29;93657.47;;;9.71;100.00
13209;BME280;6669;42.678;23.332;2023-04-25T02:50:56;93646.56;;;9.54;100.00
13209;BME280;6669;42.678;23.332;2023-04-25T02:53:24;93640.38;;;9.48;100.00
13209;BME280;6669;42.678;23.332;2023-04-25T02:55:52;93631.06;;;9.61;100.00
13209;BME280;6669;42.678;23.332;2023-04-25T02:58:25;93634.59;;;9.53;100.00
13209;BME280;6669;42.678;23.332;2023-04-25T03:00:52;93638.56;;;9.49;100.00
13209;BME280;6669;42.678;23.332;2023-04-25T03:03:21;93634.75;;;9.45;100.00
13209;BME280;6669;42.678;23.332;2023-04-25T03:05:51;93638.75;;;9.47;100.00
13209;BME280;6669;42.678;23.332;2023-04-25T03:08:20;93628.41;;;9.54;100.00
13209;BME280;6669;42.678;23.332;2023-04-25T03:10:49;93621.63;;;9.53;100.00
13209;BME280;6669;42.678;23.332;2023-04-25T03:13:18;93639.94;;;9.45;100.00
13209;BME280;6669;42.678;23.332;2023-04-25T03:15:46;93630.13;;;9.40;100.00
13209;BME280;6669;42.678;23.332;2023-04-25T03:18:14;93634.31;;;9.41;100.00
13209;BME280;6669;42.678;23.332;2023-04-25T03:20:42;93639.50;;;9.41;100.00
13209;BME280;6669;42.678;23.332;2023-04-25T03:23:11;93624.34;;;9.38;100.00
13209;BME280;6669;42.678;23.332;2023-04-25T03:25:39;93632.94;;;9.45;100.00
13209;BME280;6669;42.678;23.332;2023-04-25T03:28:09;93630.19;;;9.47;100.00
13209;BME280;6669;42.678;23.332;2023-04-25T03:30:37;93635.72;;;9.44;100.00
13209;BME280;6669;42.678;23.332;2023-04-25T03:33:05;93627.41;;;9.48;100.00
13209;BME280;6669;42.678;23.332;2023-04-25T03:35:33;93615.97;;;9.43;100.00
13209;BME280;6669;42.678;23.332;2023-04-25T03:38:01;93629.03;;;9.56;100.00
13209;BME280;6669;42.678;23.332;2023-04-25T03:40:30;93629.41;;;9.53;100.00
13209;BME280;6669;42.678;23.332;2023-04-25T03:42:58;93636.84;;;9.63;100.00
13209;BME280;6669;42.678;23.332;2023-04-25T03:45:26;93627.44;;;9.55;100.00
13209;BME280;6669;42.678;23.332;2023-04-25T03:47:54;93623.88;;;9.63;100.00
13209;BME280;6669;42.678;23.332;2023-04-25T03:50:22;93623.47;;;9.59;100.00
13209;BME280;6669;42.678;23.332;2023-04-25T03:52:50;93626.66;;;9.55;100.00
13209;BME280;6669;42.678;23.332;2023-04-25T03:55:18;93636.84;;;9.63;100.00
13209;BME280;6669;42.678;23.332;2023-04-25T03:57:47;93600.75;;;9.68;100.00
13209;BME280;6669;42.678;23.332;2023-04-25T04:00:16;93613.41;;;9.78;100.00
13209;BME280;6669;42.678;23.332;2023-04-25T04:02:44;93606.22;;;9.80;100.00
13209;BME280;6669;42.678;23.332;2023-04-25T04:05:12;93635.88;;;9.99;100.00
13209;BME280;6669;42.678;23.332;2023-04-25T04:07:40;93637.50;;;10.07;100.00
13209;BME280;6669;42.678;23.332;2023-04-25T04:10:09;93638.69;;;10.04;100.00
13209;BME280;6669;42.678;23.332;2023-04-25T04:12:38;93638.75;;;10.18;100.00
13209;BME280;6669;42.678;23.332;2023-04-25T04:15:08;93641.97;;;10.20;100.00
13209;BME280;6669;42.678;23.332;2023-04-25T04:17:37;93634.94;;;10.20;100.00
13209;BME280;6669;42.678;23.332;2023-04-25T04:20:06;93650.59;;;10.34;100.00
13209;BME280;6669;42.678;23.332;2023-04-25T04:22:35;93646.66;;;10.38;100.00
13209;BME280;6669;42.678;23.332;2023-04-25T04:25:03;93624.47;;;10.42;100.00
13209;BME280;6669;42.678;23.332;2023-04-25T04:27:32;93633.88;;;10.50;100.00
13209;BME280;6669;42.678;23.332;2023-04-25T04:30:01;93629.47;;;10.43;100.00
13209;BME280;6669;42.678;23.332;2023-04-25T04:32:31;93632.09;;;10.50;100.00
13209;BME280;6669;42.678;23.332;2023-04-25T04:35:01;93633.88;;;10.50;100.00
13209;BME280;6669;42.678;23.332;2023-04-25T04:37:30;93626.50;;;10.46;100.00
13209;BME280;6669;42.678;23.332;2023-04-25T04:39:58;93630.28;;;10.51;100.00
13209;BME280;6669;42.678;23.332;2023-04-25T04:42:26;93626.72;;;10.58;100.00
13209;BME280;6669;42.678;23.332;2023-04-25T04:44:54;93637.53;;;10.62;100.00
13209;BME280;6669;42.678;23.332;2023-04-25T04:47:22;93631.75;;;10.73;100.00
13209;BME280;6669;42.678;23.332;2023-04-25T04:49:52;93637.56;;;10.82;100.00
13209;BME280;6669;42.678;23.332;2023-04-25T04:52:20;93638.75;;;10.79;100.00
13209;BME280;6669;42.678;23.332;2023-04-25T04:54:48;93640.13;;;10.75;100.00
13209;BME280;6669;42.678;23.332;2023-04-25T04:57:16;93646.94;;;10.76;100.00
13209;BME280;6669;42.678;23.332;2023-04-25T04:59:44;93661.94;;;10.81;100.00
13209;BME280;6669;42.678;23.332;2023-04-25T05:02:12;93655.16;;;10.73;100.00
13209;BME280;6669;42.678;23.332;2023-04-25T05:04:40;93655.91;;;10.67;100.00
13209;BME280;6669;42.678;23.332;2023-04-25T05:07:09;93656.34;;;10.77;100.00
13209;BME280;6669;42.678;23.332;2023-04-25T05:09:38;93660.56;;;10.78;100.00
13209;BME280;6669;42.678;23.332;2023-04-25T05:12:06;93650.09;;;10.52;100.00
13209;BME280;6669;42.678;23.332;2023-04-25T05:14:34;93677.34;;;10.76;100.00
13209;BME280;6669;42.678;23.332;2023-04-25T05:17:02;93665.53;;;10.73;100.00
13209;BME280;6669;42.678;23.332;2023-04-25T05:19:31;93669.53;;;10.76;100.00
13209;BME280;6669;42.678;23.332;2023-04-25T05:21:59;93672.56;;;10.79;100.00
13209;BME280;6669;42.678;23.332;2023-04-25T05:24:29;93662.75;;;10.82;100.00
13209;BME280;6669;42.678;23.332;2023-04-25T05:26:57;93665.34;;;10.82;100.00
13209;BME280;6669;42.678;23.332;2023-04-25T05:29:25;93663.38;;;10.90;100.00
13209;BME280;6669;42.678;23.332;2023-04-25T05:31:53;93658.56;;;10.94;100.00
13209;BME280;6669;42.678;23.332;2023-04-25T05:34:21;93665.19;;;10.96;100.00
13209;BME280;6669;42.678;23.332;2023-04-25T05:36:49;93660.59;;;11.05;100.00
13209;BME280;6669;42.678;23.332;2023-04-25T05:39:17;93668.19;;;11.00;100.00
13209;BME280;6669;42.678;23.332;2023-04-25T05:41:46;93666.00;;;10.97;100.00
13209;BME280;6669;42.678;23.332;2023-04-25T05:44:14;93663.97;;;11.06;100.00
13209;BME280;6669;42.678;23.332;2023-04-25T05:46:43;93654.97;;;11.02;100.00
13209;BME280;6669;42.678;23.332;2023-04-25T05:49:11;93653.19;;;11.22;100.00
13209;BME280;6669;42.678;23.332;2023-04-25T05:51:39;93664.81;;;11.33;100.00
13209;BME280;6669;42.678;23.332;2023-04-25T05:54:07;93669.22;;;11.26;100.00
13209;BME280;6669;42.678;23.332;2023-04-25T05:56:35;93669.22;;;11.39;100.00
13209;BME280;6669;42.678;23.332;2023-04-25T05:59:04;93657.63;;;11.35;100.00
13209;BME280;6669;42.678;23.332;2023-04-25T06:01:32;93660.81;;;11.37;100.00
13209;BME280;6669;42.678;23.332;2023-04-25T06:04:00;93666.81;;;11.44;100.00
13209;BME280;6669;42.678;23.332;2023-04-25T06:06:29;93665.19;;;11.50;100.00
13209;BME280;6669;42.678;23.332;2023-04-25T06:08:57;93671.03;;;11.52;100.00
13209;BME280;6669;42.678;23.332;2023-04-25T06:11:27;93654.41;;;11.40;100.00
13209;BME280;6669;42.678;23.332;2023-04-25T06:13:55;93670.00;;;11.60;100.00
13209;BME280;6669;42.678;23.332;2023-04-25T06:16:24;93669.59;;;11.56;100.00
13209;BME280;6669;42.678;23.332;2023-04-25T06:18:53;93673.81;;;11.57;100.00
13209;BME280;6669;42.678;23.332;2023-04-25T06:21:21;93670.41;;;11.64;100.00
13209;BME280;6669;42.678;23.332;2023-04-25T06:23:49;93667.19;;;11.61;100.00
13209;BME280;6669;42.678;23.332;2023-04-25T06:26:17;93675.00;;;11.61;100.00
13209;BME280;6669;42.678;23.332;2023-04-25T06:28:46;93673.44;;;11.47;100.00
13209;BME280;6669;42.678;23.332;2023-04-25T06:31:14;93679.81;;;11.71;100.00
13209;BME280;6669;42.678;23.332;2023-04-25T06:33:43;93674.22;;;11.81;100.00
13209;BME280;6669;42.678;23.332;2023-04-25T06:36:11;93676.97;;;11.93;100.00
13209;BME280;6669;42.678;23.332;2023-04-25T06:38:39;93682.56;;;12.10;100.00
13209;BME280;6669;42.678;23.332;2023-04-25T06:41:08;93673.34;;;12.21;100.00
13209;BME280;6669;42.678;23.332;2023-04-25T06:43:36;93679.88;;;12.37;100.00
13209;BME280;6669;42.678;23.332;2023-04-25T06:46:04;93688.50;;;12.44;100.00
13209;BME280;6669;42.678;23.332;2023-04-25T06:48:32;93692.47;;;12.53;100.00
13209;BME280;6669;42.678;23.332;2023-04-25T06:51:01;93693.66;;;12.57;100.00
13209;BME280;6669;42.678;23.332;2023-04-25T06:53:29;93691.41;;;12.61;100.00
13209;BME280;6669;42.678;23.332;2023-04-25T06:55:57;93692.63;;;12.65;100.00
13209;BME280;6669;42.678;23.332;2023-04-25T06:58:25;93690.38;;;12.75;100.00
13209;BME280;6669;42.678;23.332;2023-04-25T07:00:53;93690.94;;;12.84;100.00
13209;BME280;6669;42.678;23.332;2023-04-25T07:03:21;93687.06;;;12.94;100.00
13209;BME280;6669;42.678;23.332;2023-04-25T07:05:50;93695.19;;;13.11;100.00
13209;BME280;6669;42.678;23.332;2023-04-25T07:08:21;93690.28;;;13.21;100.00
13209;BME280;6669;42.678;23.332;2023-04-25T07:10:49;93703.94;;;13.23;100.00
13209;BME280;6669;42.678;23.332;2023-04-25T07:13:16;93700.13;;;13.25;100.00
13209;BME280;6669;42.678;23.332;2023-04-25T07:15:44;93698.59;;;13.11;100.00
13209;BME280;6669;42.678;23.332;2023-04-25T07:18:14;93695.81;;;13.06;100.00
13209;BME280;6669;42.678;23.332;2023-04-25T07:20:42;93700.00;;;13.14;100.00
13209;BME280;6669;42.678;23.332;2023-04-25T07:23:10;93688.50;;;13.21;100.00
13209;BME280;6669;42.678;23.332;2023-04-25T07:25:39;93700.53;;;13.22;100.00
13209;BME280;6669;42.678;23.332;2023-04-25T07:28:07;93693.88;;;13.27;100.00
13209;BME280;6669;42.678;23.332;2023-04-25T07:30:35;93693.25;;;13.31;100.00
13209;BME280;6669;42.678;23.332;2023-04-25T07:33:03;93689.94;;;13.49;100.00
13209;BME280;6669;42.678;23.332;2023-04-25T07:35:32;93688.13;;;13.50;100.00
13209;BME280;6669;42.678;23.332;2023-04-25T07:37:59;93685.97;;;13.65;100.00
13209;BME280;6669;42.678;23.332;2023-04-25T07:40:27;93684.03;;;13.61;100.00
13209;BME280;6669;42.678;23.332;2023-04-25T07:42:57;93671.22;;;13.78;100.00
13209;BME280;6669;42.678;23.332;2023-04-25T07:45:25;93675.00;;;13.82;100.00
13209;BME280;6669;42.678;23.332;2023-04-25T07:47:53;93675.16;;;13.87;100.00
13209;BME280;6669;42.678;23.332;2023-04-25T07:50:21;93683.66;;;13.82;100.00
13209;BME280;6669;42.678;23.332;2023-04-25T07:52:49;93680.97;;;13.89;100.00
13209;BME280;6669;42.678;23.332;2023-04-25T07:55:17;93664.19;;;13.78;100.00
13209;BME280;6669;42.678;23.332;2023-04-25T07:57:45;93674.81;;;14.02;100.00
13209;BME280;6669;42.678;23.332;2023-04-25T08:00:15;93680.84;;;14.21;100.00
13209;BME280;6669;42.678;23.332;2023-04-25T08:02:43;93674.16;;;14.25;100.00
13209;BME280;6669;42.678;23.332;2023-04-25T08:05:12;93673.03;;;14.39;100.00
13209;BME280;6669;42.678;23.332;2023-04-25T08:07:43;93674.44;;;14.35;100.00
13209;BME280;6669;42.678;23.332;2023-04-25T08:10:11;93674.16;;;14.44;100.00
13209;BME280;6669;42.678;23.332;2023-04-25T08:12:39;93671.25;;;14.70;100.00
13209;BME280;6669;42.678;23.332;2023-04-25T08:15:08;93671.38;;;14.57;100.00
13209;BME280;6669;42.678;23.332;2023-04-25T08:17:38;93675.38;;;14.78;100.00
13209;BME280;6669;42.678;23.332;2023-04-25T08:20:07;93668.63;;;14.89;100.00
13209;BME280;6669;42.678;23.332;2023-04-25T08:22:35;93666.94;;;15.07;100.00
13209;BME280;6669;42.678;23.332;2023-04-25T08:25:04;93658.47;;;15.23;100.00
13209;BME280;6669;42.678;23.332;2023-04-25T08:27:32;93653.09;;;15.18;100.00
13209;BME280;6669;42.678;23.332;2023-04-25T08:30:00;93663.81;;;15.28;100.00
13209;BME280;6669;42.678;23.332;2023-04-25T08:32:29;93664.19;;;15.44;100.00
13209;BME280;6669;42.678;23.332;2023-04-25T08:34:58;93659.63;;;15.39;100.00
13209;BME280;6669;42.678;23.332;2023-04-25T08:37:26;93672.72;;;15.39;100.00
13209;BME280;6669;42.678;23.332;2023-04-25T08:39:54;93665.69;;;14.97;100.00
13209;BME280;6669;42.678;23.332;2023-04-25T08:42:23;93677.94;;;14.48;100.00
13209;BME280;6669;42.678;23.332;2023-04-25T08:44:53;93672.22;;;14.20;100.00
13209;BME280;6669;42.678;23.332;2023-04-25T08:47:23;93685.56;;;14.12;100.00
13209;BME280;6669;42.678;23.332;2023-04-25T08:49:53;93680.34;;;14.12;100.00
13209;BME280;6669;42.678;23.332;2023-04-25T08:52:23;93658.69;;;14.05;100.00
13209;BME280;6669;42.678;23.332;2023-04-25T08:54:55;93663.28;;;14.10;100.00
13209;BME280;6669;42.678;23.332;2023-04-25T08:57:26;93661.09;;;14.25;100.00
13209;BME280;6669;42.678;23.332;2023-04-25T08:59:56;93658.63;;;14.49;100.00
13209;BME280;6669;42.678;23.332;2023-04-25T09:02:25;93651.63;;;14.80;100.00
13209;BME280;6669;42.678;23.332;2023-04-25T09:04:53;93646.25;;;15.17;100.00
13209;BME280;6669;42.678;23.332;2023-04-25T09:07:24;93647.81;;;15.48;100.00
13209;BME280;6669;42.678;23.332;2023-04-25T09:09:52;93649.88;;;15.82;100.00
13209;BME280;6669;42.678;23.332;2023-04-25T09:12:21;93644.66;;;15.94;100.00
13209;BME280;6669;42.678;23.332;2023-04-25T09:15:04;93640.09;;;15.89;100.00
13209;BME280;6669;42.678;23.332;2023-04-25T09:17:32;93637.69;;;16.11;100.00
13209;BME280;6669;42.678;23.332;2023-04-25T09:20:08;93638.84;;;16.15;100.00
13209;BME280;6669;42.678;23.332;2023-04-25T09:22:38;93640.16;;;16.30;100.00
13209;BME280;6669;42.678;23.332;2023-04-25T09:25:10;93635.50;;;16.32;100.00
13209;BME280;6669;42.678;23.332;2023-04-25T09:27:49;93633.09;;;16.18;100.00
13209;BME280;6669;42.678;23.332;2023-04-25T09:30:18;93631.94;;;16.26;100.00
13209;BME280;6669;42.678;23.332;2023-04-25T09:32:47;93641.31;;;16.22;100.00
13209;BME280;6669;42.678;23.332;2023-04-25T09:35:23;93648.75;;;16.13;100.00
13209;BME280;6669;42.678;23.332;2023-04-25T09:37:53;93646.00;;;16.08;100.00
13209;BME280;6669;42.678;23.332;2023-04-25T09:40:21;93641.34;;;16.10;100.00
13209;BME280;6669;42.678;23.332;2023-04-25T09:42:50;93635.63;;;16.13;100.00
13209;BME280;6669;42.678;23.332;2023-04-25T09:45:18;93628.78;;;16.24;100.00
13209;BME280;6669;42.678;23.332;2023-04-25T09:47:46;93605.53;;;16.16;100.00
13209;BME280;6669;42.678;23.332;2023-04-25T09:50:14;93625.41;;;15.88;100.00
13209;BME280;6669;42.678;23.332;2023-04-25T09:52:43;93639.16;;;15.72;100.00
13209;BME280;6669;42.678;23.332;2023-04-25T09:55:12;93636.47;;;15.90;100.00
13209;BME280;6669;42.678;23.332;2023-04-25T09:57:41;93627.31;;;15.81;100.00
13209;BME280;6669;42.678;23.332;2023-04-25T10:00:10;93626.09;;;15.95;100.00
13209;BME280;6669;42.678;23.332;2023-04-25T10:02:42;93634.03;;;16.12;100.00
13209;BME280;6669;42.678;23.332;2023-04-25T10:05:11;93636.47;;;16.43;100.00
13209;BME280;6669;42.678;23.332;2023-04-25T10:07:39;93635.22;;;16.45;100.00
13209;BME280;6669;42.678;23.332;2023-04-25T10:10:08;93633.31;;;16.41;100.00
13209;BME280;6669;42.678;23.332;2023-04-25T10:12:41;93633.50;;;16.39;100.00
13209;BME280;6669;42.678;23.332;2023-04-25T10:15:11;93627.63;;;16.32;100.00
13209;BME280;6669;42.678;23.332;2023-04-25T10:17:39;93674.41;;;15.88;100.00
13209;BME280;6669;42.678;23.332;2023-04-25T10:20:08;93691.13;;;14.90;100.00
13209;BME280;6669;42.678;23.332;2023-04-25T10:22:41;93656.91;;;13.30;100.00
13209;BME280;6669;42.678;23.332;2023-04-25T10:25:10;93638.00;;;12.77;100.00
13209;BME280;6669;42.678;23.332;2023-04-25T10:27:38;93633.22;;;12.67;100.00
13209;BME280;6669;42.678;23.332;2023-04-25T10:30:10;93630.22;;;13.02;100.00
13209;BME280;6669;42.678;23.332;2023-04-25T10:32:39;93621.34;;;13.35;100.00
13209;BME280;6669;42.678;23.332;2023-04-25T10:35:13;93622.19;;;13.98;100.00
13209;BME280;6669;42.678;23.332;2023-04-25T10:38:00;93629.53;;;14.76;100.00
13209;BME280;6669;42.678;23.332;2023-04-25T10:40:29;93620.94;;;15.53;100.00
13209;BME280;6669;42.678;23.332;2023-04-25T10:46:19;93615.69;;;16.53;100.00
13209;BME280;6669;42.678;23.332;2023-04-25T10:48:52;93640.00;;;16.77;100.00
13209;BME280;6669;42.678;23.332;2023-04-25T10:51:22;93625.13;;;16.95;100.00
13209;BME280;6669;42.678;23.332;2023-04-25T10:53:58;93605.44;;;17.09;100.00
13209;BME280;6669;42.678;23.332;2023-04-25T10:56:27;93622.06;;;16.86;100.00
13209;BME280;6669;42.678;23.332;2023-04-25T10:59:06;93625.47;;;16.17;100.00
13209;BME280;6669;42.678;23.332;2023-04-25T11:01:39;93633.50;;;16.39;100.00
13209;BME280;6669;42.678;23.332;2023-04-25T11:04:19;93604.72;;;16.27;100.00
13209;BME280;6669;42.678;23.332;2023-04-25T11:06:58;93623.47;;;16.77;100.00
13209;BME280;6669;42.678;23.332;2023-04-25T11:09:33;93590.28;;;16.82;100.00
13209;BME280;6669;42.678;23.332;2023-04-25T11:12:01;93587.75;;;17.56;100.00
13209;BME280;6669;42.678;23.332;2023-04-25T11:14:29;93610.19;;;17.97;94.22
13209;BME280;6669;42.678;23.332;2023-04-25T11:16:59;93608.00;;;17.55;88.55
13209;BME280;6669;42.678;23.332;2023-04-25T11:19:29;93608.81;;;17.39;90.55
13209;BME280;6669;42.678;23.332;2023-04-25T11:21:57;93607.09;;;17.15;93.03
13209;BME280;6669;42.678;23.332;2023-04-25T11:24:27;93603.97;;;17.02;96.35
13209;BME280;6669;42.678;23.332;2023-04-25T11:26:55;93604.22;;;16.71;96.48
13209;BME280;6669;42.678;23.332;2023-04-25T11:29:23;93612.31;;;16.41;100.00
13209;BME280;6669;42.678;23.332;2023-04-25T11:31:51;93613.75;;;16.20;100.00
13209;BME280;6669;42.678;23.332;2023-04-25T11:34:21;93606.81;;;16.01;100.00
13209;BME280;6669;42.678;23.332;2023-04-25T11:36:50;93608.88;;;15.99;100.00
13209;BME280;6669;42.678;23.332;2023-04-25T11:39:19;93603.31;;;15.84;100.00
13209;BME280;6669;42.678;23.332;2023-04-25T11:41:47;93631.19;;;15.66;100.00
13209;BME280;6669;42.678;23.332;2023-04-25T11:44:15;93647.75;;;15.13;100.00
13209;BME280;6669;42.678;23.332;2023-04-25T11:46:43;93629.41;;;14.70;100.00
13209;BME280;6669;42.678;23.332;2023-04-25T11:49:11;93642.38;;;14.28;100.00
13209;BME280;6669;42.678;23.332;2023-04-25T11:51:41;93653.03;;;13.64;100.00
13209;BME280;6669;42.678;23.332;2023-04-25T11:54:10;93615.13;;;12.79;100.00
13209;BME280;6669;42.678;23.332;2023-04-25T11:56:41;93622.06;;;12.53;100.00
13209;BME280;6669;42.678;23.332;2023-04-25T11:59:09;93604.88;;;12.52;100.00
13209;BME280;6669;42.678;23.332;2023-04-25T12:01:40;93609.53;;;13.33;100.00
13209;BME280;6669;42.678;23.332;2023-04-25T12:04:12;93608.41;;;13.91;100.00
13209;BME280;6669;42.678;23.332;2023-04-25T12:06:43;93601.72;;;14.63;100.00
13209;BME280;6669;42.678;23.332;2023-04-25T12:09:14;93598.56;;;15.03;100.00
13209;BME280;6669;42.678;23.332;2023-04-25T12:11:42;93594.25;;;14.97;100.00
13209;BME280;6669;42.678;23.332;2023-04-25T12:14:11;93600.91;;;14.93;100.00
13209;BME280;6669;42.678;23.332;2023-04-25T12:16:40;93600.03;;;14.99;100.00
13209;BME280;6669;42.678;23.332;2023-04-25T12:19:09;93595.28;;;14.47;100.00
13209;BME280;6669;42.678;23.332;2023-04-25T12:21:38;93584.41;;;14.31;100.00
13209;BME280;6669;42.678;23.332;2023-04-25T12:24:26;93585.78;;;14.34;100.00
13209;BME280;6669;42.678;23.332;2023-04-25T12:26:59;93594.03;;;14.68;100.00
13209;BME280;6669;42.678;23.332;2023-04-25T12:29:29;93583.69;;;15.39;100.00
13209;BME280;6669;42.678;23.332;2023-04-25T12:32:13;93595.69;;;16.35;100.00
13209;BME280;6669;42.678;23.332;2023-04-25T12:34:42;93606.78;;;16.13;100.00
13209;BME280;6669;42.678;23.332;2023-04-25T12:37:10;93643.25;;;15.67;100.00
13209;BME280;6669;42.678;23.332;2023-04-25T12:39:39;93640.63;;;14.22;100.00
13209;BME280;6669;42.678;23.332;2023-04-25T12:42:07;93654.44;;;13.67;100.00
13209;BME280;6669;42.678;23.332;2023-04-25T12:44:39;93654.00;;;12.87;100.00
13209;BME280;6669;42.678;23.332;2023-04-25T12:47:08;93656.47;;;12.75;100.00
13209;BME280;6669;42.678;23.332;2023-04-25T12:49:36;93663.03;;;12.46;100.00
13209;BME280;6669;42.678;23.332;2023-04-25T12:52:04;93664.81;;;12.46;100.00
13209;BME280;6669;42.678;23.332;2023-04-25T12:54:32;93652.41;;;12.48;100.00
13209;BME280;6669;42.678;23.332;2023-04-25T12:57:02;93660.22;;;12.48;100.00
13209;BME280;6669;42.678;23.332;2023-04-25T12:59:30;93648.97;;;12.47;100.00
13209;BME280;6669;42.678;23.332;2023-04-25T13:01:58;93657.06;;;12.32;100.00
13209;BME280;6669;42.678;23.332;2023-04-25T13:04:26;93663.56;;;12.09;100.00
13209;BME280;6669;42.678;23.332;2023-04-25T13:06:54;93659.56;;;12.07;100.00